createdAt,value
2023-02-21T00:01:13.801Z,4.38
2023-02-21T00:04:21.479Z,3.78
2023-02-21T00:07:29.069Z,3.53
2023-02-21T00:10:35.751Z,3.20
2023-02-21T00:13:41.764Z,3.60
2023-02-21T00:16:49.101Z,3.50
2023-02-21T00:19:56.446Z,3.50
2023-02-21T00:23:04.513Z,3.37
2023-02-21T00:26:10.874Z,3.20
2023-02-21T00:29:17.521Z,3.20
2023-02-21T00:32:24.257Z,3.43
2023-02-21T00:35:32.774Z,3.53
2023-02-21T00:38:39.106Z,3.20
2023-02-21T00:41:45.333Z,3.40
2023-02-21T00:44:53.007Z,3.63
2023-02-21T00:47:58.948Z,2.90
2023-02-21T00:51:06.723Z,3.60
2023-02-21T00:54:13.647Z,3.30
2023-02-21T00:57:19.842Z,3.40
2023-02-21T01:00:32.872Z,3.67
2023-02-21T01:03:39.828Z,3.97
2023-02-21T01:06:48.056Z,3.37
2023-02-21T01:09:55.300Z,3.07
2023-02-21T01:13:02.226Z,3.10
2023-02-21T01:16:10.084Z,2.60
2023-02-21T01:19:16.600Z,3.13
2023-02-21T01:22:25.077Z,2.53
2023-02-21T01:25:35.229Z,3.27
2023-02-21T01:28:41.254Z,2.70
2023-02-21T01:31:47.791Z,2.87
2023-02-21T01:34:54.150Z,3.60
2023-02-21T01:38:04.830Z,3.10
2023-02-21T01:41:12.233Z,3.10
2023-02-21T01:44:20.887Z,2.97
2023-02-21T01:47:30.536Z,3.53
2023-02-21T01:50:38.068Z,4.80
2023-02-21T01:53:46.824Z,4.40
2023-02-21T01:56:54.307Z,3.90
2023-02-21T02:00:01.789Z,4.27
2023-02-21T02:03:14.526Z,3.10
2023-02-21T02:06:24.775Z,3.00
2023-02-21T02:09:38.442Z,3.20
2023-02-21T02:12:52.131Z,3.57
2023-02-21T02:15:48.563Z,3.13
2023-02-21T02:19:28.771Z,3.57
2023-02-21T02:22:55.600Z,3.33
2023-02-21T02:26:02.249Z,3.20
2023-02-21T02:29:11.334Z,3.87
2023-02-21T02:32:31.904Z,4.20
2023-02-21T02:35:31.162Z,4.13
2023-02-21T02:38:26.565Z,3.47
2023-02-21T02:41:27.836Z,3.20
2023-02-21T02:44:25.869Z,3.07
2023-02-21T02:47:18.946Z,2.90
2023-02-21T02:50:10.502Z,2.90
2023-02-21T02:53:05.747Z,2.53
2023-02-21T02:55:58.246Z,2.63
2023-02-21T02:58:53.542Z,2.90
2023-02-21T03:02:07.743Z,2.57
2023-02-21T03:05:12.189Z,2.43
2023-02-21T03:08:16.769Z,2.33
2023-02-21T03:11:14.763Z,2.77
2023-02-21T03:14:10.424Z,2.70
2023-02-21T03:17:04.966Z,2.33
2023-02-21T03:19:55.920Z,2.40
2023-02-21T03:22:47.870Z,2.60
2023-02-21T03:25:40.153Z,2.63
2023-02-21T03:28:34.424Z,2.53
2023-02-21T03:31:27.424Z,2.30
2023-02-21T03:34:17.003Z,2.67
2023-02-21T03:37:06.070Z,2.80
2023-02-21T03:39:55.238Z,2.67
2023-02-21T03:42:45.385Z,2.20
2023-02-21T03:45:38.010Z,2.63
2023-02-21T03:48:32.609Z,2.53
2023-02-21T03:51:36.026Z,2.50
2023-02-21T03:54:25.915Z,2.90
2023-02-21T03:57:18.028Z,2.97
2023-02-21T04:00:12.444Z,2.70
2023-02-21T04:03:03.779Z,2.50
2023-02-21T04:05:59.553Z,2.50
2023-02-21T04:08:52.137Z,2.83
2023-02-21T04:11:45.193Z,2.40
2023-02-21T04:14:34.010Z,2.53
2023-02-21T04:17:24.784Z,3.17
2023-02-21T04:20:16.250Z,3.13
2023-02-21T04:23:10.270Z,2.60
2023-02-21T04:25:59.809Z,2.87
2023-02-21T04:28:57.654Z,2.87
2023-02-21T04:31:46.588Z,2.53
2023-02-21T04:34:40.007Z,2.77
2023-02-21T04:37:28.870Z,3.23
2023-02-21T04:40:20.280Z,2.40
2023-02-21T04:43:09.018Z,2.77
2023-02-21T04:45:59.733Z,3.20
2023-02-21T04:48:50.848Z,2.83
2023-02-21T04:51:42.594Z,2.80
2023-02-21T04:54:31.214Z,2.73
2023-02-21T04:57:20.739Z,3.30
2023-02-21T05:00:11.988Z,2.60
2023-02-21T05:03:01.287Z,3.10
2023-02-21T05:05:49.871Z,2.77
2023-02-21T05:08:41.257Z,3.00
2023-02-21T05:11:30.391Z,2.70
2023-02-21T05:14:19.032Z,2.50
2023-02-21T05:17:09.020Z,2.50
2023-02-21T05:19:58.103Z,3.37
2023-02-21T05:22:47.117Z,2.70
2023-02-21T05:25:37.215Z,3.43
2023-02-21T05:28:27.361Z,3.17
2023-02-21T05:31:16.834Z,2.93
2023-02-21T05:34:06.079Z,2.93
2023-02-21T05:36:55.117Z,3.13
2023-02-21T05:39:44.637Z,3.30
2023-02-21T05:42:35.345Z,3.00
2023-02-21T05:45:24.355Z,2.70
2023-02-21T05:48:13.406Z,3.30
2023-02-21T05:51:02.502Z,3.40
2023-02-21T05:53:51.989Z,3.20
2023-02-21T05:56:41.237Z,3.87
2023-02-21T05:59:31.686Z,3.53
2023-02-21T06:02:20.732Z,3.57
2023-02-21T06:05:09.378Z,3.80
2023-02-21T06:07:58.410Z,4.10
2023-02-21T06:10:48.622Z,4.17
2023-02-21T06:13:38.607Z,4.20
2023-02-21T06:16:29.561Z,3.70
2023-02-21T06:19:19.465Z,3.53
2023-02-21T06:22:08.102Z,4.07
2023-02-21T06:24:57.902Z,3.03
2023-02-21T06:27:46.508Z,3.50
2023-02-21T06:30:35.664Z,2.97
2023-02-21T06:33:26.276Z,3.70
2023-02-21T06:36:17.846Z,2.97
2023-02-21T06:39:09.055Z,3.20
2023-02-21T06:41:57.704Z,3.30
2023-02-21T06:44:47.077Z,3.20
2023-02-21T06:47:36.725Z,3.50
2023-02-21T06:50:26.657Z,3.03
2023-02-21T06:53:16.859Z,3.00
2023-02-21T06:56:05.959Z,3.67
2023-02-21T06:58:56.498Z,3.60
2023-02-21T07:01:45.752Z,3.63
2023-02-21T07:04:35.270Z,4.20
2023-02-21T07:07:25.369Z,3.67
2023-02-21T07:10:15.462Z,3.40
2023-02-21T07:13:04.079Z,3.67
2023-02-21T07:15:53.082Z,3.30
2023-02-21T07:18:41.685Z,4.00
2023-02-21T07:21:31.676Z,4.70
2023-02-21T07:24:21.707Z,5.40
2023-02-21T07:27:11.134Z,6.13
2023-02-21T07:29:59.949Z,5.03
2023-02-21T07:32:49.051Z,4.40
2023-02-21T07:35:37.670Z,3.70
2023-02-21T07:38:30.414Z,3.73
2023-02-21T07:41:21.395Z,3.30
2023-02-21T07:44:10.597Z,3.50
2023-02-21T07:47:00.131Z,3.93
2023-02-21T07:49:48.738Z,3.60
2023-02-21T07:52:38.767Z,3.50
2023-02-21T07:55:27.547Z,3.20
2023-02-21T07:58:21.043Z,3.20
2023-02-21T08:01:10.500Z,3.47
2023-02-21T08:03:59.962Z,3.90
2023-02-21T08:06:49.330Z,4.07
2023-02-21T08:09:38.502Z,3.60
2023-02-21T08:12:27.102Z,3.27
2023-02-21T08:15:18.127Z,2.87
2023-02-21T08:18:07.071Z,3.17
2023-02-21T08:20:57.370Z,3.20
2023-02-21T08:23:45.942Z,4.80
2023-02-21T08:26:35.476Z,4.90
2023-02-21T08:29:24.145Z,3.70
2023-02-21T08:32:15.785Z,3.57
2023-02-21T08:35:06.230Z,6.27
2023-02-21T08:37:57.270Z,4.63
2023-02-21T08:40:47.327Z,4.90
2023-02-21T08:43:35.884Z,4.40
2023-02-21T08:46:25.315Z,4.30
2023-02-21T08:49:15.550Z,4.77
2023-02-21T08:52:05.301Z,4.40
2023-02-21T08:54:53.906Z,4.50
2023-02-21T08:57:43.400Z,4.57
2023-02-21T09:00:32.121Z,4.67
2023-02-21T09:03:22.324Z,4.30
2023-02-21T09:06:12.909Z,3.93
2023-02-21T09:09:01.501Z,4.50
2023-02-21T09:11:51.811Z,4.00
2023-02-21T09:14:42.781Z,4.40
2023-02-21T09:17:33.861Z,4.38
2023-02-21T09:20:26.094Z,3.90
2023-02-21T09:23:18.660Z,4.53
2023-02-21T09:26:07.237Z,4.00
2023-02-21T09:28:56.867Z,4.37
2023-02-21T09:31:46.753Z,4.03
2023-02-21T09:34:35.375Z,3.55
2023-02-21T09:37:25.452Z,3.90
2023-02-21T09:40:25.198Z,4.38
2023-02-21T09:43:18.618Z,3.97
2023-02-21T09:46:12.179Z,3.45
2023-02-21T09:49:04.251Z,4.85
2023-02-21T09:51:54.895Z,3.97
2023-02-21T09:54:49.179Z,3.60
2023-02-21T09:57:39.597Z,4.35
2023-02-21T10:00:35.386Z,3.70
2023-02-21T10:03:47.065Z,3.53
2023-02-21T10:06:49.517Z,3.63
2023-02-21T10:09:46.708Z,3.35
2023-02-21T10:12:42.202Z,4.65
2023-02-21T10:15:42.170Z,4.10
2023-02-21T10:18:38.837Z,6.43
2023-02-21T10:21:31.912Z,5.20
2023-02-21T10:24:23.955Z,3.55
2023-02-21T10:27:18.232Z,3.50
2023-02-21T10:30:11.603Z,4.35
2023-02-21T10:33:06.661Z,3.38
2023-02-21T10:35:57.136Z,4.20
2023-02-21T10:38:59.052Z,4.47
2023-02-21T10:41:51.336Z,5.00
2023-02-21T10:44:40.582Z,3.85
2023-02-21T10:47:39.845Z,2.80
2023-02-21T10:50:52.265Z,2.85
2023-02-21T10:53:42.478Z,3.70
2023-02-21T10:56:32.890Z,2.88
2023-02-21T10:59:24.352Z,3.30
2023-02-21T11:02:35.099Z,3.60
2023-02-21T11:05:24.740Z,3.15
2023-02-21T11:08:16.429Z,2.90
2023-02-21T11:11:05.291Z,3.05
2023-02-21T11:14:15.333Z,3.35
2023-02-21T11:17:23.037Z,3.50
2023-02-21T11:20:20.364Z,3.05
2023-02-21T11:23:23.361Z,3.28
2023-02-21T11:26:14.472Z,2.92
2023-02-21T11:29:11.215Z,3.38
2023-02-21T11:32:01.577Z,3.28
2023-02-21T11:34:51.344Z,2.67
2023-02-21T11:37:51.221Z,2.55
2023-02-21T11:40:46.561Z,2.90
2023-02-21T11:43:36.734Z,2.50
2023-02-21T11:46:39.347Z,2.70
2023-02-21T11:49:38.809Z,3.00
2023-02-21T11:52:35.473Z,2.45
2023-02-21T11:55:26.773Z,2.70
2023-02-21T11:58:25.067Z,3.05
2023-02-21T12:01:20.097Z,2.88
2023-02-21T12:04:25.009Z,2.60
2023-02-21T12:07:20.131Z,2.40
2023-02-21T12:10:29.440Z,2.55
2023-02-21T12:13:32.082Z,2.53
2023-02-21T12:16:34.133Z,2.70
2023-02-21T12:19:40.165Z,2.95
2023-02-21T12:22:45.435Z,3.17
2023-02-21T12:25:47.213Z,2.88
2023-02-21T12:28:54.644Z,6.18
2023-02-21T12:31:59.563Z,3.97
2023-02-21T12:35:05.995Z,9.25
2023-02-21T12:38:04.212Z,8.88
2023-02-21T12:41:04.921Z,5.75
2023-02-21T12:44:01.605Z,3.47
2023-02-21T12:46:59.221Z,8.35
2023-02-21T12:49:54.891Z,3.72
2023-02-21T12:52:56.011Z,2.88
2023-02-21T12:55:48.769Z,2.67
2023-02-21T12:58:43.510Z,3.05
2023-02-21T13:01:38.103Z,2.63
2023-02-21T13:04:37.752Z,3.17
2023-02-21T13:07:34.125Z,2.80
2023-02-21T13:10:28.763Z,3.08
2023-02-21T13:13:23.767Z,2.70
2023-02-21T13:16:15.734Z,2.13
2023-02-21T13:19:10.624Z,2.60
2023-02-21T13:22:30.519Z,2.55
2023-02-21T13:25:28.840Z,2.63
2023-02-21T13:28:23.781Z,2.80
2023-02-21T13:31:22.876Z,2.28
2023-02-21T13:34:20.552Z,2.42
2023-02-21T13:37:17.425Z,1.95
2023-02-21T13:40:17.614Z,2.35
2023-02-21T13:43:13.934Z,2.17
2023-02-21T13:46:24.921Z,2.60
2023-02-21T13:49:44.839Z,2.47
2023-02-21T13:52:54.388Z,2.45
2023-02-21T13:56:26.171Z,2.35
2023-02-21T13:59:34.537Z,2.22
2023-02-21T14:02:30.760Z,2.20
2023-02-21T14:05:20.413Z,2.50
2023-02-21T14:08:11.644Z,2.60
2023-02-21T14:11:16.719Z,2.40
2023-02-21T14:14:19.352Z,3.63
2023-02-21T14:17:12.474Z,3.42
2023-02-21T14:20:02.162Z,2.00
2023-02-21T14:22:55.048Z,1.95
2023-02-21T14:25:57.377Z,1.80
2023-02-21T14:29:03.481Z,1.95
2023-02-21T14:32:19.112Z,2.05
2023-02-21T14:35:27.561Z,2.20
2023-02-21T14:38:22.351Z,2.00
2023-02-21T14:41:29.247Z,2.03
2023-02-21T14:44:28.418Z,2.03
2023-02-21T14:47:37.342Z,1.80
2023-02-21T14:50:37.333Z,1.95
2023-02-21T14:53:56.227Z,2.20
2023-02-21T14:57:18.095Z,1.80
2023-02-21T15:00:22.183Z,3.28
2023-02-21T15:03:15.962Z,3.58
2023-02-21T15:06:11.738Z,4.60
2023-02-21T15:09:13.495Z,2.40
2023-02-21T15:12:03.360Z,1.90
2023-02-21T15:14:54.231Z,2.10
2023-02-21T15:17:43.116Z,2.00
2023-02-21T15:20:33.752Z,1.90
2023-02-21T15:23:30.226Z,5.72
2023-02-21T15:26:22.004Z,2.08
2023-02-21T15:29:14.016Z,1.95
2023-02-21T15:32:04.123Z,2.30
2023-02-21T15:34:55.365Z,1.65
2023-02-21T15:37:46.368Z,2.40
2023-02-21T15:40:38.300Z,1.90
2023-02-21T15:43:41.157Z,1.77
2023-02-21T15:46:33.674Z,1.65
2023-02-21T15:49:26.833Z,1.90
2023-02-21T15:52:29.494Z,1.60
2023-02-21T15:55:31.229Z,1.85
2023-02-21T15:58:26.868Z,2.05
2023-02-21T16:01:23.715Z,1.83
2023-02-21T16:04:20.864Z,1.75
2023-02-21T16:07:19.798Z,1.90
2023-02-21T16:10:12.795Z,1.80
2023-02-21T16:13:02.718Z,1.60
2023-02-21T16:15:53.044Z,1.50
2023-02-21T16:18:41.816Z,1.92
2023-02-21T16:21:30.959Z,1.50
2023-02-21T16:24:31.638Z,1.77
2023-02-21T16:27:20.323Z,1.98
2023-02-21T16:30:16.398Z,1.75
2023-02-21T16:33:07.941Z,2.72
2023-02-21T16:35:57.218Z,2.55
2023-02-21T16:38:46.657Z,2.17
2023-02-21T16:41:36.550Z,2.40
2023-02-21T16:44:25.298Z,2.33
2023-02-21T16:47:17.804Z,2.13
2023-02-21T16:50:17.846Z,2.03
2023-02-21T16:53:07.542Z,2.00
2023-02-21T16:55:57.776Z,2.10
2023-02-21T16:58:50.416Z,2.58
2023-02-21T17:01:41.407Z,8.50
2023-02-21T17:04:30.360Z,7.82
2023-02-21T17:07:25.348Z,5.40
2023-02-21T17:10:14.222Z,5.60
2023-02-21T17:13:04.212Z,5.13
2023-02-21T17:15:54.657Z,2.85
2023-02-21T17:18:45.568Z,3.45
2023-02-21T17:21:35.327Z,2.88
2023-02-21T17:24:25.799Z,2.10
2023-02-21T17:27:15.311Z,1.80
2023-02-21T17:30:04.493Z,2.00
2023-02-21T17:32:54.494Z,3.65
2023-02-21T17:35:43.224Z,2.80
2023-02-21T17:38:32.298Z,1.70
2023-02-21T17:41:23.134Z,5.95
2023-02-21T17:44:12.590Z,5.60
2023-02-21T17:47:01.863Z,5.03
2023-02-21T17:49:54.987Z,5.20
2023-02-21T17:52:43.958Z,3.72
2023-02-21T17:55:34.301Z,3.72
2023-02-21T17:58:24.320Z,4.60
2023-02-21T18:01:17.187Z,4.63
2023-02-21T18:04:07.138Z,3.92
2023-02-21T18:06:55.832Z,4.00
2023-02-21T18:09:47.627Z,3.75
2023-02-21T18:12:36.490Z,4.05
2023-02-21T18:15:28.967Z,3.90
2023-02-21T18:18:17.640Z,3.72
2023-02-21T18:21:07.684Z,4.05
2023-02-21T18:23:56.382Z,4.35
2023-02-21T18:26:46.887Z,4.10
2023-02-21T18:29:35.555Z,3.75
2023-02-21T18:32:25.930Z,3.95
2023-02-21T18:35:16.334Z,3.85
2023-02-21T18:38:04.967Z,4.28
2023-02-21T18:40:55.091Z,4.13
2023-02-21T18:43:44.380Z,4.93
2023-02-21T18:46:33.409Z,4.53
2023-02-21T18:49:24.246Z,4.57
2023-02-21T18:52:15.238Z,4.40
2023-02-21T18:55:04.700Z,5.60
2023-02-21T18:57:53.346Z,5.03
2023-02-21T19:00:43.095Z,5.43
2023-02-21T19:03:32.934Z,6.72
2023-02-21T19:06:24.956Z,5.50
2023-02-21T19:09:13.794Z,5.07
2023-02-21T19:12:03.333Z,5.38
2023-02-21T19:14:53.990Z,4.25
2023-02-21T19:17:43.429Z,3.75
2023-02-21T19:20:33.133Z,3.65
2023-02-21T19:23:24.202Z,3.42
2023-02-21T19:26:13.554Z,4.35
2023-02-21T19:29:02.511Z,4.50
2023-02-21T19:31:51.413Z,7.72
2023-02-21T19:34:40.826Z,14.65
2023-02-21T19:37:30.742Z,12.80
2023-02-21T19:40:21.011Z,7.70
2023-02-21T19:43:10.500Z,5.30
2023-02-21T19:45:59.602Z,4.97
2023-02-21T19:48:48.941Z,5.22
2023-02-21T19:51:38.353Z,4.78
2023-02-21T19:54:29.886Z,4.45
2023-02-21T19:57:20.317Z,4.38
2023-02-21T20:00:11.790Z,4.40
2023-02-21T20:03:00.886Z,4.90
2023-02-21T20:05:49.539Z,3.90
2023-02-21T20:08:38.389Z,3.75
2023-02-21T20:11:27.156Z,3.95
2023-02-21T20:14:18.029Z,5.13
2023-02-21T20:17:07.548Z,7.07
2023-02-21T20:19:56.457Z,6.53
2023-02-21T20:22:46.050Z,6.25
2023-02-21T20:25:35.246Z,6.18
2023-02-21T20:28:24.670Z,5.60
2023-02-21T20:31:15.986Z,5.63
2023-02-21T20:34:07.259Z,5.05
2023-02-21T20:36:58.856Z,5.30
2023-02-21T20:39:49.377Z,4.40
2023-02-21T20:42:39.021Z,4.72
2023-02-21T20:45:28.657Z,5.18
2023-02-21T20:48:19.287Z,4.45
2023-02-21T20:51:07.886Z,5.93
2023-02-21T20:54:00.602Z,5.30
2023-02-21T20:56:50.885Z,4.68
2023-02-21T20:59:41.957Z,5.15
2023-02-21T21:02:30.957Z,4.90
2023-02-21T21:05:21.649Z,5.00
2023-02-21T21:08:11.381Z,6.45
2023-02-21T21:11:00.326Z,6.15
2023-02-21T21:13:50.449Z,5.72
2023-02-21T21:16:39.534Z,5.90
2023-02-21T21:19:33.654Z,6.93
2023-02-21T21:22:26.362Z,8.73
2023-02-21T21:25:17.504Z,5.85
2023-02-21T21:28:06.884Z,6.78
2023-02-21T21:30:55.506Z,5.30
2023-02-21T21:33:45.691Z,5.30
2023-02-21T21:36:35.953Z,5.35
2023-02-21T21:39:28.490Z,5.38
2023-02-21T21:42:18.966Z,4.68
2023-02-21T21:45:08.826Z,5.30
2023-02-21T21:47:58.884Z,5.60
2023-02-21T21:50:48.360Z,6.03
2023-02-21T21:53:38.611Z,7.47
2023-02-21T21:56:29.001Z,7.40
2023-02-21T21:59:20.289Z,6.72
2023-02-21T22:02:10.767Z,7.05
2023-02-21T22:04:59.960Z,6.40
2023-02-21T22:07:49.095Z,5.57
2023-02-21T22:10:40.165Z,6.28
2023-02-21T22:13:33.776Z,5.00
2023-02-21T22:16:24.392Z,4.35
2023-02-21T22:19:13.507Z,5.10
2023-02-21T22:22:08.003Z,4.95
2023-02-21T22:24:57.438Z,4.93
2023-02-21T22:27:46.238Z,4.43
2023-02-21T22:30:37.867Z,5.18
2023-02-21T22:33:26.441Z,4.65
2023-02-21T22:36:18.786Z,4.03
2023-02-21T22:39:11.090Z,4.32
2023-02-21T22:42:00.525Z,4.38
2023-02-21T22:44:49.945Z,4.53
2023-02-21T22:47:41.491Z,4.72
2023-02-21T22:50:32.520Z,4.70
2023-02-21T22:53:22.417Z,4.13
2023-02-21T22:56:15.251Z,4.00
2023-02-21T22:59:07.899Z,3.85
2023-02-21T23:01:58.789Z,4.13
2023-02-21T23:04:48.766Z,3.58
2023-02-21T23:07:38.963Z,3.85
2023-02-21T23:10:29.376Z,3.58
2023-02-21T23:13:21.408Z,4.10
2023-02-21T23:16:10.698Z,4.80
2023-02-21T23:19:00.155Z,4.78
2023-02-21T23:21:52.195Z,4.80
2023-02-21T23:24:44.872Z,4.47
2023-02-21T23:27:33.829Z,4.10
2023-02-21T23:30:27.493Z,3.80
2023-02-21T23:33:18.809Z,3.95
2023-02-21T23:36:09.568Z,4.18
2023-02-21T23:38:59.478Z,4.05
2023-02-21T23:41:49.415Z,4.18
2023-02-21T23:44:38.053Z,4.05
2023-02-21T23:47:28.225Z,4.00
2023-02-21T23:50:18.445Z,8.75
2023-02-21T23:53:09.696Z,8.52
2023-02-21T23:56:00.678Z,5.70
2023-02-21T23:58:49.998Z,5.80
